sensor_id;sensor_type;location;lat;lon;timestamp;temperature;humidity
12971;DHT22;6550;48.650;8.774;2023-12-20T00:01:24;11.40;98.70
12971;DHT22;6550;48.650;8.774;2023-12-20T00:03:51;11.30;99.90
12971;DHT22;6550;48.650;8.774;2023-12-20T00:06:20;11.40;99.90
12971;DHT22;6550;48.650;8.774;2023-12-20T00:08:47;11.70;99.90
12971;DHT22;6550;48.650;8.774;2023-12-20T00:11:14;11.30;98.70
12971;DHT22;6550;48.650;8.774;2023-12-20T00:13:46;11.30;99.10
12971;DHT22;6550;48.650;8.774;2023-12-20T00:16:17;11.30;99.10
12971;DHT22;6550;48.650;8.774;2023-12-20T00:18:44;11.30;98.90
12971;DHT22;6550;48.650;8.774;2023-12-20T00:21:14;11.30;99.40
12971;DHT22;6550;48.650;8.774;2023-12-20T00:23:41;11.40;98.50
12971;DHT22;6550;48.650;8.774;2023-12-20T00:26:08;11.30;99.90
12971;DHT22;6550;48.650;8.774;2023-12-20T00:28:34;11.30;99.90
12971;DHT22;6550;48.650;8.774;2023-12-20T00:31:04;11.30;98.40
12971;DHT22;6550;48.650;8.774;2023-12-20T00:33:33;11.40;99.00
12971;DHT22;6550;48.650;8.774;2023-12-20T00:36:00;11.30;98.80
12971;DHT22;6550;48.650;8.774;2023-12-20T00:38:32;11.70;99.90
12971;DHT22;6550;48.650;8.774;2023-12-20T00:40:59;11.30;98.60
12971;DHT22;6550;48.650;8.774;2023-12-20T00:43:26;11.30;99.90
12971;DHT22;6550;48.650;8.774;2023-12-20T00:45:53;11.10;99.90
12971;DHT22;6550;48.650;8.774;2023-12-20T00:48:24;11.20;99.90
12971;DHT22;6550;48.650;8.774;2023-12-20T00:50:53;11.30;99.90
12971;DHT22;6550;48.650;8.774;2023-12-20T00:53:22;11.60;99.00
12971;DHT22;6550;48.650;8.774;2023-12-20T00:55:49;11.10;98.90
12971;DHT22;6550;48.650;8.774;2023-12-20T00:58:21;11.10;99.10
12971;DHT22;6550;48.650;8.774;2023-12-20T01:00:50;11.20;99.90
12971;DHT22;6550;48.650;8.774;2023-12-20T01:03:17;11.00;99.10
12971;DHT22;6550;48.650;8.774;2023-12-20T01:05:47;11.50;99.90
12971;DHT22;6550;48.650;8.774;2023-12-20T01:08:18;11.50;99.90
12971;DHT22;6550;48.650;8.774;2023-12-20T01:10:45;12.00;98.90
12971;DHT22;6550;48.650;8.774;2023-12-20T01:15:40;11.40;99.70
12971;DHT22;6550;48.650;8.774;2023-12-20T01:18:08;11.70;99.40
12971;DHT22;6550;48.650;8.774;2023-12-20T01:20:35;11.40;99.20
12971;DHT22;6550;48.650;8.774;2023-12-20T01:23:05;11.30;99.90
12971;DHT22;6550;48.650;8.774;2023-12-20T01:25:31;11.20;99.90
12971;DHT22;6550;48.650;8.774;2023-12-20T01:28:01;11.20;99.90
12971;DHT22;6550;48.650;8.774;2023-12-20T01:30:29;11.20;99.10
12971;DHT22;6550;48.650;8.774;2023-12-20T01:32:56;10.80;99.60
12971;DHT22;6550;48.650;8.774;2023-12-20T01:35:23;12.10;99.90
12971;DHT22;6550;48.650;8.774;2023-12-20T01:37:50;11.10;99.90
12971;DHT22;6550;48.650;8.774;2023-12-20T01:40:19;11.10;99.90
12971;DHT22;6550;48.650;8.774;2023-12-20T01:42:48;11.30;99.90
12971;DHT22;6550;48.650;8.774;2023-12-20T01:45:24;10.90;99.90
12971;DHT22;6550;48.650;8.774;2023-12-20T01:47:53;10.90;99.90
12971;DHT22;6550;48.650;8.774;2023-12-20T01:50:23;12.20;99.90
12971;DHT22;6550;48.650;8.774;2023-12-20T01:52:50;11.30;99.90
12971;DHT22;6550;48.650;8.774;2023-12-20T01:55:19;11.80;99.90
12971;DHT22;6550;48.650;8.774;2023-12-20T01:57:47;11.50;99.90
12971;DHT22;6550;48.650;8.774;2023-12-20T02:00:17;11.50;99.90
12971;DHT22;6550;48.650;8.774;2023-12-20T02:02:47;11.10;99.70
12971;DHT22;6550;48.650;8.774;2023-12-20T02:05:16;11.90;99.90
12971;DHT22;6550;48.650;8.774;2023-12-20T02:07:43;11.10;99.90
12971;DHT22;6550;48.650;8.774;2023-12-20T02:10:15;12.10;99.90
12971;DHT22;6550;48.650;8.774;2023-12-20T02:12:42;11.20;99.70
12971;DHT22;6550;48.650;8.774;2023-12-20T02:15:09;11.00;99.90
12971;DHT22;6550;48.650;8.774;2023-12-20T02:17:39;11.00;99.90
12971;DHT22;6550;48.650;8.774;2023-12-20T02:20:07;10.90;99.90
12971;DHT22;6550;48.650;8.774;2023-12-20T02:22:37;11.10;99.90
12971;DHT22;6550;48.650;8.774;2023-12-20T02:25:06;10.50;99.90
12971;DHT22;6550;48.650;8.774;2023-12-20T02:27:33;11.20;99.90
12971;DHT22;6550;48.650;8.774;2023-12-20T02:30:00;11.00;99.90
12971;DHT22;6550;48.650;8.774;2023-12-20T02:32:30;11.00;99.90
12971;DHT22;6550;48.650;8.774;2023-12-20T02:34:57;10.90;99.90
12971;DHT22;6550;48.650;8.774;2023-12-20T02:37:27;10.30;99.90
12971;DHT22;6550;48.650;8.774;2023-12-20T02:39:54;10.80;99.90
12971;DHT22;6550;48.650;8.774;2023-12-20T02:42:21;11.20;99.90
12971;DHT22;6550;48.650;8.774;2023-12-20T02:44:50;10.90;99.90
12971;DHT22;6550;48.650;8.774;2023-12-20T02:47:17;10.90;99.90
12971;DHT22;6550;48.650;8.774;2023-12-20T02:49:44;11.10;99.90
12971;DHT22;6550;48.650;8.774;2023-12-20T02:52:11;10.90;99.90
12971;DHT22;6550;48.650;8.774;2023-12-20T02:54:37;11.10;99.90
12971;DHT22;6550;48.650;8.774;2023-12-20T02:57:04;10.90;99.90
12971;DHT22;6550;48.650;8.774;2023-12-20T03:02:01;11.00;99.90
12971;DHT22;6550;48.650;8.774;2023-12-20T03:04:28;11.30;99.90
12971;DHT22;6550;48.650;8.774;2023-12-20T03:06:55;12.80;99.90
12971;DHT22;6550;48.650;8.774;2023-12-20T03:09:22;11.30;99.50
12971;DHT22;6550;48.650;8.774;2023-12-20T03:11:49;11.70;99.90
12971;DHT22;6550;48.650;8.774;2023-12-20T03:14:18;11.40;99.60
12971;DHT22;6550;48.650;8.774;2023-12-20T03:16:51;11.30;99.70
12971;DHT22;6550;48.650;8.774;2023-12-20T03:19:20;11.30;99.90
12971;DHT22;6550;48.650;8.774;2023-12-20T03:21:49;11.20;99.90
12971;DHT22;6550;48.650;8.774;2023-12-20T03:24:23;11.00;99.90
12971;DHT22;6550;48.650;8.774;2023-12-20T03:26:49;11.30;99.90
12971;DHT22;6550;48.650;8.774;2023-12-20T03:29:16;11.30;99.90
12971;DHT22;6550;48.650;8.774;2023-12-20T03:31:43;11.10;99.50
12971;DHT22;6550;48.650;8.774;2023-12-20T03:34:10;10.20;99.90
12971;DHT22;6550;48.650;8.774;2023-12-20T03:36:40;10.80;99.90
12971;DHT22;6550;48.650;8.774;2023-12-20T03:39:07;11.00;99.90
12971;DHT22;6550;48.650;8.774;2023-12-20T03:41:33;10.90;99.90
12971;DHT22;6550;48.650;8.774;2023-12-20T03:44:03;11.10;99.90
12971;DHT22;6550;48.650;8.774;2023-12-20T03:46:32;12.10;99.90
12971;DHT22;6550;48.650;8.774;2023-12-20T03:48:59;11.20;99.90
12971;DHT22;6550;48.650;8.774;2023-12-20T03:51:30;11.00;99.90
12971;DHT22;6550;48.650;8.774;2023-12-20T03:53:56;11.00;99.90
12971;DHT22;6550;48.650;8.774;2023-12-20T03:56:25;11.00;99.90
12971;DHT22;6550;48.650;8.774;2023-12-20T03:58:55;10.80;99.90
12971;DHT22;6550;48.650;8.774;2023-12-20T04:01:24;11.00;99.90
12971;DHT22;6550;48.650;8.774;2023-12-20T04:03:51;10.90;99.90
12971;DHT22;6550;48.650;8.774;2023-12-20T04:06:18;11.10;99.90
12971;DHT22;6550;48.650;8.774;2023-12-20T04:08:47;11.00;99.90
12971;DHT22;6550;48.650;8.774;2023-12-20T04:11:14;11.20;99.90
12971;DHT22;6550;48.650;8.774;2023-12-20T04:13:43;11.30;99.90
12971;DHT22;6550;48.650;8.774;2023-12-20T04:16:10;11.50;99.90
12971;DHT22;6550;48.650;8.774;2023-12-20T04:18:37;11.50;99.90
12971;DHT22;6550;48.650;8.774;2023-12-20T04:21:04;11.40;99.80
12971;DHT22;6550;48.650;8.774;2023-12-20T04:23:31;11.30;99.90
12971;DHT22;6550;48.650;8.774;2023-12-20T04:25:58;11.30;99.90
12971;DHT22;6550;48.650;8.774;2023-12-20T04:28:29;11.10;99.90
12971;DHT22;6550;48.650;8.774;2023-12-20T04:30:58;11.00;99.90
12971;DHT22;6550;48.650;8.774;2023-12-20T04:33:29;10.90;99.90
12971;DHT22;6550;48.650;8.774;2023-12-20T04:35:56;11.00;99.90
12971;DHT22;6550;48.650;8.774;2023-12-20T04:38:24;11.00;99.90
12971;DHT22;6550;48.650;8.774;2023-12-20T04:40:50;11.00;99.90
12971;DHT22;6550;48.650;8.774;2023-12-20T04:43:20;10.90;99.90
12971;DHT22;6550;48.650;8.774;2023-12-20T04:45:49;11.70;99.90
12971;DHT22;6550;48.650;8.774;2023-12-20T04:48:18;11.00;99.90
12971;DHT22;6550;48.650;8.774;2023-12-20T04:50:45;11.10;99.90
12971;DHT22;6550;48.650;8.774;2023-12-20T04:53:12;11.20;99.90
12971;DHT22;6550;48.650;8.774;2023-12-20T04:55:42;11.70;99.90
12971;DHT22;6550;48.650;8.774;2023-12-20T04:58:11;11.30;99.90
12971;DHT22;6550;48.650;8.774;2023-12-20T05:00:38;11.60;99.90
12971;DHT22;6550;48.650;8.774;2023-12-20T05:03:07;11.20;99.90
12971;DHT22;6550;48.650;8.774;2023-12-20T05:05:38;11.20;99.90
12971;DHT22;6550;48.650;8.774;2023-12-20T05:08:06;11.20;99.90
12971;DHT22;6550;48.650;8.774;2023-12-20T05:10:35;11.50;99.90
12971;DHT22;6550;48.650;8.774;2023-12-20T05:13:07;11.30;99.90
12971;DHT22;6550;48.650;8.774;2023-12-20T05:15:34;11.40;99.90
12971;DHT22;6550;48.650;8.774;2023-12-20T05:20:28;11.30;99.90
12971;DHT22;6550;48.650;8.774;2023-12-20T05:22:58;10.90;99.90
12971;DHT22;6550;48.650;8.774;2023-12-20T05:25:24;11.20;99.90
12971;DHT22;6550;48.650;8.774;2023-12-20T05:27:51;11.20;99.90
12971;DHT22;6550;48.650;8.774;2023-12-20T05:30:21;11.50;99.90
12971;DHT22;6550;48.650;8.774;2023-12-20T05:32:50;11.10;99.90
12971;DHT22;6550;48.650;8.774;2023-12-20T05:35:18;11.50;99.90
12971;DHT22;6550;48.650;8.774;2023-12-20T05:37:45;11.30;99.90
12971;DHT22;6550;48.650;8.774;2023-12-20T05:42:41;11.20;99.90
12971;DHT22;6550;48.650;8.774;2023-12-20T05:45:09;11.20;99.90
12971;DHT22;6550;48.650;8.774;2023-12-20T05:47:35;11.20;99.90
12971;DHT22;6550;48.650;8.774;2023-12-20T05:50:05;11.30;99.90
12971;DHT22;6550;48.650;8.774;2023-12-20T05:52:32;11.30;99.90
12971;DHT22;6550;48.650;8.774;2023-12-20T05:55:01;11.40;99.90
12971;DHT22;6550;48.650;8.774;2023-12-20T05:57:33;11.50;99.90
12971;DHT22;6550;48.650;8.774;2023-12-20T05:59:59;11.30;99.90
12971;DHT22;6550;48.650;8.774;2023-12-20T06:02:31;11.30;99.90
12971;DHT22;6550;48.650;8.774;2023-12-20T06:05:00;11.70;99.90
12971;DHT22;6550;48.650;8.774;2023-12-20T06:07:28;11.90;99.90
12971;DHT22;6550;48.650;8.774;2023-12-20T06:09:56;11.50;99.90
12971;DHT22;6550;48.650;8.774;2023-12-20T06:12:25;11.80;99.90
12971;DHT22;6550;48.650;8.774;2023-12-20T06:14:56;11.90;99.90
12971;DHT22;6550;48.650;8.774;2023-12-20T06:17:26;12.40;99.90
12971;DHT22;6550;48.650;8.774;2023-12-20T06:19:53;12.80;99.60
12971;DHT22;6550;48.650;8.774;2023-12-20T06:22:23;11.70;99.90
12971;DHT22;6550;48.650;8.774;2023-12-20T06:24:50;11.30;99.90
12971;DHT22;6550;48.650;8.774;2023-12-20T06:27:16;11.20;99.90
12971;DHT22;6550;48.650;8.774;2023-12-20T06:34:40;11.20;99.90
12971;DHT22;6550;48.650;8.774;2023-12-20T06:37:07;11.10;99.90
12971;DHT22;6550;48.650;8.774;2023-12-20T06:42:01;11.50;99.90
12971;DHT22;6550;48.650;8.774;2023-12-20T06:44:30;11.10;99.90
12971;DHT22;6550;48.650;8.774;2023-12-20T06:47:00;11.40;99.90
12971;DHT22;6550;48.650;8.774;2023-12-20T06:49:30;11.50;99.90
12971;DHT22;6550;48.650;8.774;2023-12-20T06:51:59;11.40;99.90
12971;DHT22;6550;48.650;8.774;2023-12-20T06:54:26;11.40;99.90
12971;DHT22;6550;48.650;8.774;2023-12-20T06:56:57;11.40;99.90
12971;DHT22;6550;48.650;8.774;2023-12-20T06:59:24;11.70;99.90
12971;DHT22;6550;48.650;8.774;2023-12-20T07:04:18;11.50;99.90
12971;DHT22;6550;48.650;8.774;2023-12-20T07:06:50;11.70;99.90
12971;DHT22;6550;48.650;8.774;2023-12-20T07:09:18;12.20;99.90
12971;DHT22;6550;48.650;8.774;2023-12-20T07:16:39;11.20;99.90
12971;DHT22;6550;48.650;8.774;2023-12-20T07:19:07;11.30;99.90
12971;DHT22;6550;48.650;8.774;2023-12-20T07:21:34;12.20;99.90
12971;DHT22;6550;48.650;8.774;2023-12-20T07:26:28;11.20;99.90
12971;DHT22;6550;48.650;8.774;2023-12-20T07:28:57;11.10;99.90
12971;DHT22;6550;48.650;8.774;2023-12-20T07:33:52;11.10;99.90
12971;DHT22;6550;48.650;8.774;2023-12-20T07:38:47;11.10;99.90
12971;DHT22;6550;48.650;8.774;2023-12-20T07:41:17;11.40;99.90
12971;DHT22;6550;48.650;8.774;2023-12-20T07:43:50;12.10;99.90
12971;DHT22;6550;48.650;8.774;2023-12-20T07:46:21;12.00;99.80
12971;DHT22;6550;48.650;8.774;2023-12-20T07:48:53;11.70;99.90
12971;DHT22;6550;48.650;8.774;2023-12-20T07:51:20;11.90;99.90
12971;DHT22;6550;48.650;8.774;2023-12-20T07:56:17;12.30;99.90
12971;DHT22;6550;48.650;8.774;2023-12-20T07:58:45;12.50;99.90
12971;DHT22;6550;48.650;8.774;2023-12-20T08:01:19;12.20;99.90
12971;DHT22;6550;48.650;8.774;2023-12-20T08:08:41;12.20;99.90
12971;DHT22;6550;48.650;8.774;2023-12-20T08:13:38;11.80;99.90
12971;DHT22;6550;48.650;8.774;2023-12-20T08:16:05;13.40;99.90
12971;DHT22;6550;48.650;8.774;2023-12-20T08:18:32;12.00;99.90
12971;DHT22;6550;48.650;8.774;2023-12-20T08:21:00;15.00;99.90
12971;DHT22;6550;48.650;8.774;2023-12-20T08:23:28;13.10;99.90
12971;DHT22;6550;48.650;8.774;2023-12-20T08:25:58;12.60;99.90
12971;DHT22;6550;48.650;8.774;2023-12-20T08:28:25;12.30;99.90
12971;DHT22;6550;48.650;8.774;2023-12-20T08:30:52;12.40;99.80
12971;DHT22;6550;48.650;8.774;2023-12-20T08:33:24;12.10;99.60
12971;DHT22;6550;48.650;8.774;2023-12-20T08:35:51;12.10;99.90
12971;DHT22;6550;48.650;8.774;2023-12-20T08:38:20;11.90;99.90
12971;DHT22;6550;48.650;8.774;2023-12-20T08:45:42;11.60;99.90
12971;DHT22;6550;48.650;8.774;2023-12-20T08:48:09;11.60;99.90
12971;DHT22;6550;48.650;8.774;2023-12-20T08:53:08;12.30;99.90
12971;DHT22;6550;48.650;8.774;2023-12-20T08:55:38;12.60;99.90
12971;DHT22;6550;48.650;8.774;2023-12-20T08:58:07;12.80;99.90
12971;DHT22;6550;48.650;8.774;2023-12-20T09:03:02;12.40;99.10
12971;DHT22;6550;48.650;8.774;2023-12-20T09:05:31;11.90;99.90
12971;DHT22;6550;48.650;8.774;2023-12-20T09:08:01;12.00;99.90
12971;DHT22;6550;48.650;8.774;2023-12-20T09:13:04;11.40;99.90
12971;DHT22;6550;48.650;8.774;2023-12-20T09:15:31;11.70;99.90
12971;DHT22;6550;48.650;8.774;2023-12-20T09:18:03;11.50;99.90
12971;DHT22;6550;48.650;8.774;2023-12-20T09:20:30;11.40;99.90
12971;DHT22;6550;48.650;8.774;2023-12-20T09:22:58;11.40;99.90
12971;DHT22;6550;48.650;8.774;2023-12-20T09:27:57;11.70;99.90
12971;DHT22;6550;48.650;8.774;2023-12-20T09:32:54;11.70;99.90
12971;DHT22;6550;48.650;8.774;2023-12-20T09:35:24;13.80;99.90
12971;DHT22;6550;48.650;8.774;2023-12-20T09:37:51;11.80;99.90
12971;DHT22;6550;48.650;8.774;2023-12-20T09:40:19;12.80;98.80
12971;DHT22;6550;48.650;8.774;2023-12-20T09:42:55;13.20;99.10
12971;DHT22;6550;48.650;8.774;2023-12-20T09:45:23;12.40;99.40
12971;DHT22;6550;48.650;8.774;2023-12-20T09:47:53;12.00;99.90
12971;DHT22;6550;48.650;8.774;2023-12-20T09:50:24;12.10;99.90
12971;DHT22;6550;48.650;8.774;2023-12-20T09:55:19;12.10;99.90
12971;DHT22;6550;48.650;8.774;2023-12-20T09:57:47;12.30;99.90
12971;DHT22;6550;48.650;8.774;2023-12-20T10:00:17;12.70;99.90
12971;DHT22;6550;48.650;8.774;2023-12-20T10:02:57;12.50;99.90
12971;DHT22;6550;48.650;8.774;2023-12-20T10:05:28;12.40;99.90
12971;DHT22;6550;48.650;8.774;2023-12-20T10:07:56;12.30;99.90
12971;DHT22;6550;48.650;8.774;2023-12-20T10:10:24;12.60;99.90
12971;DHT22;6550;48.650;8.774;2023-12-20T10:13:10;13.10;99.90
12971;DHT22;6550;48.650;8.774;2023-12-20T10:15:40;12.50;99.90
12971;DHT22;6550;48.650;8.774;2023-12-20T10:25:32;12.80;99.40
12971;DHT22;6550;48.650;8.774;2023-12-20T10:30:40;12.50;99.90
12971;DHT22;6550;48.650;8.774;2023-12-20T10:35:39;12.70;99.80
12971;DHT22;6550;48.650;8.774;2023-12-20T10:38:11;13.00;99.20
12971;DHT22;6550;48.650;8.774;2023-12-20T10:43:08;13.10;98.80
12971;DHT22;6550;48.650;8.774;2023-12-20T10:48:04;13.10;99.30
12971;DHT22;6550;48.650;8.774;2023-12-20T10:50:31;13.20;98.80
12971;DHT22;6550;48.650;8.774;2023-12-20T10:53:01;13.00;99.10
12971;DHT22;6550;48.650;8.774;2023-12-20T10:55:30;13.00;99.90
12971;DHT22;6550;48.650;8.774;2023-12-20T10:58:07;13.60;99.90
12971;DHT22;6550;48.650;8.774;2023-12-20T11:00:44;14.90;98.70
12971;DHT22;6550;48.650;8.774;2023-12-20T11:03:13;13.30;99.90
12971;DHT22;6550;48.650;8.774;2023-12-20T11:06:03;13.00;98.60
12971;DHT22;6550;48.650;8.774;2023-12-20T11:08:38;13.00;98.70
12971;DHT22;6550;48.650;8.774;2023-12-20T11:11:20;13.00;99.00
12971;DHT22;6550;48.650;8.774;2023-12-20T11:14:03;13.00;98.70
12971;DHT22;6550;48.650;8.774;2023-12-20T11:16:33;12.70;99.90
12971;DHT22;6550;48.650;8.774;2023-12-20T11:19:14;13.50;99.90
12971;DHT22;6550;48.650;8.774;2023-12-20T11:21:41;12.90;99.90
12971;DHT22;6550;48.650;8.774;2023-12-20T11:24:12;12.60;99.50
12971;DHT22;6550;48.650;8.774;2023-12-20T11:26:47;12.90;99.10
12971;DHT22;6550;48.650;8.774;2023-12-20T11:29:36;13.20;98.90
12971;DHT22;6550;48.650;8.774;2023-12-20T11:32:27;13.30;98.80
12971;DHT22;6550;48.650;8.774;2023-12-20T11:34:56;12.90;99.20
12971;DHT22;6550;48.650;8.774;2023-12-20T11:37:29;13.30;99.90
12971;DHT22;6550;48.650;8.774;2023-12-20T11:40:05;13.10;98.10
12971;DHT22;6550;48.650;8.774;2023-12-20T11:42:42;13.30;98.60
12971;DHT22;6550;48.650;8.774;2023-12-20T11:45:23;13.30;98.40
12971;DHT22;6550;48.650;8.774;2023-12-20T11:47:56;12.60;98.70
12971;DHT22;6550;48.650;8.774;2023-12-20T11:50:26;12.50;99.10
12971;DHT22;6550;48.650;8.774;2023-12-20T11:52:56;12.70;98.70
12971;DHT22;6550;48.650;8.774;2023-12-20T11:55:28;12.60;99.20
12971;DHT22;6550;48.650;8.774;2023-12-20T12:00:25;12.80;98.60
12971;DHT22;6550;48.650;8.774;2023-12-20T12:02:58;14.40;99.10
12971;DHT22;6550;48.650;8.774;2023-12-20T12:05:28;12.70;99.40
12971;DHT22;6550;48.650;8.774;2023-12-20T12:07:58;14.00;99.90
12971;DHT22;6550;48.650;8.774;2023-12-20T12:12:59;12.80;98.90
12971;DHT22;6550;48.650;8.774;2023-12-20T12:17:56;13.00;98.40
12971;DHT22;6550;48.650;8.774;2023-12-20T12:23:05;13.40;97.70
12971;DHT22;6550;48.650;8.774;2023-12-20T12:25:35;13.20;98.00
12971;DHT22;6550;48.650;8.774;2023-12-20T12:28:07;15.70;98.90
12971;DHT22;6550;48.650;8.774;2023-12-20T12:30:36;13.30;98.90
12971;DHT22;6550;48.650;8.774;2023-12-20T12:33:14;13.30;99.90
12971;DHT22;6550;48.650;8.774;2023-12-20T12:35:41;12.80;99.90
12971;DHT22;6550;48.650;8.774;2023-12-20T12:38:11;13.00;99.90
12971;DHT22;6550;48.650;8.774;2023-12-20T12:40:43;13.30;99.90
12971;DHT22;6550;48.650;8.774;2023-12-20T12:45:40;13.20;97.90
12971;DHT22;6550;48.650;8.774;2023-12-20T12:48:10;12.80;99.90
12971;DHT22;6550;48.650;8.774;2023-12-20T12:50:39;12.70;99.40
12971;DHT22;6550;48.650;8.774;2023-12-20T12:53:06;12.90;98.80
12971;DHT22;6550;48.650;8.774;2023-12-20T12:55:38;12.70;99.90
12971;DHT22;6550;48.650;8.774;2023-12-20T12:58:05;12.80;99.90
12971;DHT22;6550;48.650;8.774;2023-12-20T13:03:04;12.70;99.20
12971;DHT22;6550;48.650;8.774;2023-12-20T13:05:31;13.10;99.90
12971;DHT22;6550;48.650;8.774;2023-12-20T13:08:04;13.30;99.90
12971;DHT22;6550;48.650;8.774;2023-12-20T13:10:33;13.40;99.90
12971;DHT22;6550;48.650;8.774;2023-12-20T13:13:03;13.90;98.40
12971;DHT22;6550;48.650;8.774;2023-12-20T13:20:28;13.00;99.90
12971;DHT22;6550;48.650;8.774;2023-12-20T13:22:55;13.30;99.90
12971;DHT22;6550;48.650;8.774;2023-12-20T13:25:22;13.10;98.50
12971;DHT22;6550;48.650;8.774;2023-12-20T13:27:49;13.40;98.40
12971;DHT22;6550;48.650;8.774;2023-12-20T13:30:18;13.30;99.50
12971;DHT22;6550;48.650;8.774;2023-12-20T13:32:47;14.10;98.70
12971;DHT22;6550;48.650;8.774;2023-12-20T13:35:15;13.70;98.50
12971;DHT22;6550;48.650;8.774;2023-12-20T13:37:42;13.30;98.10
12971;DHT22;6550;48.650;8.774;2023-12-20T13:40:13;12.80;98.50
12971;DHT22;6550;48.650;8.774;2023-12-20T13:42:40;12.50;99.90
12971;DHT22;6550;48.650;8.774;2023-12-20T13:45:13;12.70;99.10
12971;DHT22;6550;48.650;8.774;2023-12-20T13:47:53;12.70;99.00
12971;DHT22;6550;48.650;8.774;2023-12-20T13:52:49;12.60;98.60
12971;DHT22;6550;48.650;8.774;2023-12-20T13:55:16;12.60;98.80
12971;DHT22;6550;48.650;8.774;2023-12-20T14:00:22;13.30;98.50
12971;DHT22;6550;48.650;8.774;2023-12-20T14:02:49;13.00;99.90
12971;DHT22;6550;48.650;8.774;2023-12-20T14:07:50;12.80;98.60
12971;DHT22;6550;48.650;8.774;2023-12-20T14:10:18;12.70;98.60
12971;DHT22;6550;48.650;8.774;2023-12-20T14:12:47;13.10;98.30
12971;DHT22;6550;48.650;8.774;2023-12-20T14:15:14;13.10;98.80
12971;DHT22;6550;48.650;8.774;2023-12-20T14:17:46;13.00;98.30
12971;DHT22;6550;48.650;8.774;2023-12-20T14:22:43;13.10;97.90
12971;DHT22;6550;48.650;8.774;2023-12-20T14:25:14;13.00;98.20
12971;DHT22;6550;48.650;8.774;2023-12-20T14:27:41;12.90;99.90
12971;DHT22;6550;48.650;8.774;2023-12-20T14:30:12;12.80;98.80
12971;DHT22;6550;48.650;8.774;2023-12-20T14:35:11;12.60;98.70
12971;DHT22;6550;48.650;8.774;2023-12-20T14:37:38;12.40;99.20
12971;DHT22;6550;48.650;8.774;2023-12-20T14:40:07;12.30;99.50
12971;DHT22;6550;48.650;8.774;2023-12-20T14:42:37;12.20;99.90
12971;DHT22;6550;48.650;8.774;2023-12-20T14:45:05;12.00;99.90
12971;DHT22;6550;48.650;8.774;2023-12-20T14:47:34;12.10;99.90
12971;DHT22;6550;48.650;8.774;2023-12-20T14:50:03;12.60;99.20
12971;DHT22;6550;48.650;8.774;2023-12-20T14:52:33;12.50;99.30
12971;DHT22;6550;48.650;8.774;2023-12-20T14:55:01;14.10;99.70
12971;DHT22;6550;48.650;8.774;2023-12-20T14:59:57;13.00;98.10
12971;DHT22;6550;48.650;8.774;2023-12-20T15:02:26;12.90;99.10
12971;DHT22;6550;48.650;8.774;2023-12-20T15:04:57;13.00;98.80
12971;DHT22;6550;48.650;8.774;2023-12-20T15:07:24;13.10;98.10
12971;DHT22;6550;48.650;8.774;2023-12-20T15:09:54;12.60;98.70
12971;DHT22;6550;48.650;8.774;2023-12-20T15:12:23;12.60;98.60
12971;DHT22;6550;48.650;8.774;2023-12-20T15:14:52;13.00;99.90
12971;DHT22;6550;48.650;8.774;2023-12-20T15:17:19;12.80;98.70
12971;DHT22;6550;48.650;8.774;2023-12-20T15:19:48;15.70;99.00
12971;DHT22;6550;48.650;8.774;2023-12-20T15:24:42;12.80;98.20
12971;DHT22;6550;48.650;8.774;2023-12-20T15:27:10;12.50;99.00
12971;DHT22;6550;48.650;8.774;2023-12-20T15:29:37;12.60;99.90
12971;DHT22;6550;48.650;8.774;2023-12-20T15:34:36;12.60;99.00
12971;DHT22;6550;48.650;8.774;2023-12-20T15:37:05;12.70;99.90
12971;DHT22;6550;48.650;8.774;2023-12-20T15:39:36;12.60;99.30
12971;DHT22;6550;48.650;8.774;2023-12-20T15:44:33;13.40;98.40
12971;DHT22;6550;48.650;8.774;2023-12-20T15:47:00;14.10;97.20
12971;DHT22;6550;48.650;8.774;2023-12-20T15:51:54;13.10;97.70
12971;DHT22;6550;48.650;8.774;2023-12-20T15:56:54;13.20;98.70
12971;DHT22;6550;48.650;8.774;2023-12-20T15:59:26;12.40;98.30
12971;DHT22;6550;48.650;8.774;2023-12-20T16:01:53;13.90;98.70
12971;DHT22;6550;48.650;8.774;2023-12-20T16:04:22;13.10;99.90
12971;DHT22;6550;48.650;8.774;2023-12-20T16:06:49;13.30;99.90
12971;DHT22;6550;48.650;8.774;2023-12-20T16:09:16;13.10;99.90
12971;DHT22;6550;48.650;8.774;2023-12-20T16:11:43;12.90;99.90
12971;DHT22;6550;48.650;8.774;2023-12-20T16:14:12;12.70;99.90
12971;DHT22;6550;48.650;8.774;2023-12-20T16:16:47;12.50;99.90
12971;DHT22;6550;48.650;8.774;2023-12-20T16:19:16;12.30;99.90
12971;DHT22;6550;48.650;8.774;2023-12-20T16:24:11;13.60;99.90
12971;DHT22;6550;48.650;8.774;2023-12-20T16:26:40;12.20;99.90
12971;DHT22;6550;48.650;8.774;2023-12-20T16:29:07;12.00;99.90
12971;DHT22;6550;48.650;8.774;2023-12-20T16:31:34;11.80;99.90
12971;DHT22;6550;48.650;8.774;2023-12-20T16:34:01;11.70;99.90
12971;DHT22;6550;48.650;8.774;2023-12-20T16:36:49;12.40;99.90
12971;DHT22;6550;48.650;8.774;2023-12-20T16:41:49;12.80;99.90
12971;DHT22;6550;48.650;8.774;2023-12-20T16:44:18;12.90;99.90
12971;DHT22;6550;48.650;8.774;2023-12-20T16:49:12;13.30;99.90
12971;DHT22;6550;48.650;8.774;2023-12-20T16:51:41;13.20;97.80
12971;DHT22;6550;48.650;8.774;2023-12-20T16:54:08;13.60;98.10
12971;DHT22;6550;48.650;8.774;2023-12-20T16:56:35;14.30;98.70
12971;DHT22;6550;48.650;8.774;2023-12-20T16:59:02;14.20;96.80
12971;DHT22;6550;48.650;8.774;2023-12-20T17:04:01;13.30;97.70
12971;DHT22;6550;48.650;8.774;2023-12-20T17:06:29;12.90;98.50
12971;DHT22;6550;48.650;8.774;2023-12-20T17:08:55;13.00;99.20
12971;DHT22;6550;48.650;8.774;2023-12-20T17:11:22;12.40;99.10
12971;DHT22;6550;48.650;8.774;2023-12-20T17:13:52;12.60;99.90
12971;DHT22;6550;48.650;8.774;2023-12-20T17:16:19;12.50;99.50
12971;DHT22;6550;48.650;8.774;2023-12-20T17:18:46;14.60;99.90
12971;DHT22;6550;48.650;8.774;2023-12-20T17:21:16;13.90;98.30
12971;DHT22;6550;48.650;8.774;2023-12-20T17:23:43;14.30;96.70
12971;DHT22;6550;48.650;8.774;2023-12-20T17:26:12;13.80;96.50
12971;DHT22;6550;48.650;8.774;2023-12-20T17:28:39;15.70;98.20
12971;DHT22;6550;48.650;8.774;2023-12-20T17:31:07;13.00;99.90
12971;DHT22;6550;48.650;8.774;2023-12-20T17:36:01;12.30;98.80
12971;DHT22;6550;48.650;8.774;2023-12-20T17:38:29;12.30;99.30
12971;DHT22;6550;48.650;8.774;2023-12-20T17:43:24;12.20;99.90
12971;DHT22;6550;48.650;8.774;2023-12-20T17:45:51;12.10;99.60
12971;DHT22;6550;48.650;8.774;2023-12-20T17:48:18;12.40;99.00
12971;DHT22;6550;48.650;8.774;2023-12-20T17:50:48;12.60;99.10
12971;DHT22;6550;48.650;8.774;2023-12-20T17:55:43;12.70;98.60
12971;DHT22;6550;48.650;8.774;2023-12-20T17:58:10;13.30;98.80
12971;DHT22;6550;48.650;8.774;2023-12-20T18:00:39;16.30;99.00
12971;DHT22;6550;48.650;8.774;2023-12-20T18:03:06;14.40;97.30
12971;DHT22;6550;48.650;8.774;2023-12-20T18:05:33;14.10;96.30
12971;DHT22;6550;48.650;8.774;2023-12-20T18:08:00;15.60;98.40
12971;DHT22;6550;48.650;8.774;2023-12-20T18:10:32;14.20;98.80
12971;DHT22;6550;48.650;8.774;2023-12-20T18:15:30;12.30;99.10
12971;DHT22;6550;48.650;8.774;2023-12-20T18:18:26;12.30;99.20
12971;DHT22;6550;48.650;8.774;2023-12-20T18:23:21;12.20;99.30
12971;DHT22;6550;48.650;8.774;2023-12-20T18:25:48;12.30;99.30